Time;durP1;ratioP1;P1;durP2;ratioP2;P2;SDS_P1;SDS_P2;PMS_P1;PMS_P2;Temp;Humidity;BMP_temperature;BMP_pressure;BME280_temperature;BME280_humidity;BME280_pressure;Samples;Min_cycle;Max_cycle;Signal;HPM_P1;HPM_P2
2023/10/04 00:01:47;;;;;;;7.10;3.05;;;;;;;12.62;99.91;102318.28;4967532;28;20039;-75
2023/10/04 00:04:13;;;;;;;11.63;2.85;;;;;;;12.62;100.00;102320.03;4970319;28;20047;-74
2023/10/04 00:06:41;;;;;;;9.07;2.42;;;;;;;12.62;100.00;102315.63;4984451;28;20058;-75
2023/10/04 00:09:09;;;;;;;9.95;2.60;;;;;;;12.64;100.00;102313.84;4970043;28;20142;-75
2023/10/04 00:11:37;;;;;;;10.48;2.63;;;;;;;12.68;100.00;102318.16;4970503;28;20053;-74
2023/10/04 00:14:05;;;;;;;8.88;2.60;;;;;;;12.76;100.00;102325.13;4970306;28;20606;-74
2023/10/04 00:16:32;;;;;;;8.35;2.65;;;;;;;12.82;100.00;102325.03;4969231;28;20042;-74
2023/10/04 00:19:01;;;;;;;10.10;2.33;;;;;;;12.86;100.00;102326.72;4970085;28;20496;-74
2023/10/04 00:21:29;;;;;;;9.75;2.28;;;;;;;12.86;100.00;102317.00;4969846;28;20053;-74
2023/10/04 00:24:00;;;;;;;10.52;2.45;;;;;;;12.83;100.00;102318.84;4966839;28;20050;-74
2023/10/04 00:26:27;;;;;;;9.10;2.40;;;;;;;12.85;99.87;102330.28;4968596;28;20046;-75
2023/10/04 00:28:54;;;;;;;10.40;2.63;;;;;;;12.82;99.67;102333.81;4969759;28;20057;-74
2023/10/04 00:31:22;;;;;;;9.80;2.20;;;;;;;12.79;99.63;102336.53;4963758;28;20258;-74
2023/10/04 00:33:49;;;;;;;11.60;2.47;;;;;;;12.77;98.99;102348.91;4981238;28;20059;-74
2023/10/04 00:36:20;;;;;;;11.38;2.80;;;;;;;12.77;99.43;102327.75;4962685;28;20039;-75
2023/10/04 00:38:48;;;;;;;5.70;2.50;;;;;;;12.76;99.49;102333.94;4968584;28;20050;-74
2023/10/04 00:41:15;;;;;;;10.70;2.80;;;;;;;12.74;99.78;102347.19;4967516;28;20113;-72
2023/10/04 00:43:50;;;;;;;9.30;2.63;;;;;;;12.76;99.59;102343.66;4983619;28;20626;-75
2023/10/04 00:46:20;;;;;;;9.65;2.63;;;;;;;12.72;100.00;102340.16;4971949;28;20433;-74
2023/10/04 00:48:49;;;;;;;10.68;2.60;;;;;;;12.77;100.00;102340.13;4969772;28;20050;-75
2023/10/04 00:51:22;;;;;;;10.40;2.63;;;;;;;12.80;100.00;102345.34;4968736;28;20411;-75
2023/10/04 00:53:51;;;;;;;9.38;2.55;;;;;;;12.86;100.00;102345.25;4969000;28;20042;-74
2023/10/04 00:56:19;;;;;;;8.32;2.50;;;;;;;12.88;100.00;102346.97;4968545;28;20043;-75
2023/10/04 00:58:46;;;;;;;9.32;2.67;;;;;;;12.93;100.00;102343.34;4966456;28;20070;-74
2023/10/04 01:01:14;;;;;;;10.25;2.50;;;;;;;12.98;100.00;102355.63;4968882;28;20290;-74
2023/10/04 01:03:41;;;;;;;11.45;2.63;;;;;;;13.00;99.94;102355.63;4968692;28;20105;-74
2023/10/04 01:06:09;;;;;;;7.35;2.53;;;;;;;13.02;100.00;102354.69;4967423;28;20121;-74
2023/10/04 01:08:39;;;;;;;11.18;2.97;;;;;;;13.05;100.00;102352.00;4966916;28;20046;-74
2023/10/04 01:11:07;;;;;;;6.80;2.30;;;;;;;13.08;100.00;102348.41;4969061;28;20055;-74
2023/10/04 01:13:34;;;;;;;11.15;2.47;;;;;;;13.09;100.00;102351.91;4969370;28;20051;-74
2023/10/04 01:16:06;;;;;;;8.25;2.78;;;;;;;13.07;99.94;102361.69;4970390;28;20499;-74
2023/10/04 01:18:36;;;;;;;9.68;2.80;;;;;;;13.04;99.78;102359.94;4986037;28;20061;-74
2023/10/04 01:21:03;;;;;;;9.45;2.75;;;;;;;13.01;99.67;102358.22;4968709;28;20035;-74
2023/10/04 01:23:30;;;;;;;7.38;2.40;;;;;;;12.97;99.71;102359.16;4967684;28;20057;-74
2023/10/04 01:25:57;;;;;;;9.30;3.17;;;;;;;12.95;99.44;102360.09;4968583;28;20414;-74
2023/10/04 01:28:28;;;;;;;9.90;2.72;;;;;;;12.91;99.55;102361.91;4968561;28;20137;-74
2023/10/04 01:30:59;;;;;;;8.35;2.75;;;;;;;12.87;99.84;102370.81;4968730;28;20045;-74
2023/10/04 01:33:28;;;;;;;8.82;2.92;;;;;;;12.84;100.00;102368.22;4967670;28;20055;-74
2023/10/04 01:35:56;;;;;;;9.45;2.72;;;;;;;12.85;100.00;102380.56;4968227;28;20149;-75
2023/10/04 01:38:25;;;;;;;8.48;2.90;;;;;;;12.82;100.00;102375.31;4967728;28;20057;-75
2023/10/04 01:40:56;;;;;;;12.55;2.95;;;;;;;12.81;100.00;102374.44;4968997;28;20046;-75
2023/10/04 01:43:25;;;;;;;9.30;2.90;;;;;;;12.77;100.00;102369.22;4968480;28;20116;-74
2023/10/04 01:45:59;;;;;;;10.00;2.83;;;;;;;12.77;100.00;102371.88;4968533;28;20046;-74
2023/10/04 01:48:35;;;;;;;10.15;2.72;;;;;;;12.78;100.00;102376.22;4968509;28;20038;-75
2023/10/04 01:51:04;;;;;;;7.57;2.83;;;;;;;12.76;100.00;102370.97;4972875;28;20039;-74
2023/10/04 01:53:34;;;;;;;9.63;3.10;;;;;;;12.73;100.00;102363.97;4968944;28;20082;-75
2023/10/04 01:56:06;;;;;;;11.07;2.95;;;;;;;12.71;100.00;102367.53;4966736;28;20050;-75
2023/10/04 01:58:37;;;;;;;12.02;2.63;;;;;;;12.71;100.00;102372.84;4966409;28;20046;-74
2023/10/04 02:01:06;;;;;;;8.85;2.55;;;;;;;12.71;100.00;102372.84;4967181;28;20074;-74
2023/10/04 02:03:33;;;;;;;9.20;2.85;;;;;;;12.69;100.00;102372.84;4966084;28;20574;-74
2023/10/04 02:06:01;;;;;;;12.10;2.70;;;;;;;12.70;100.00;102381.66;4968781;28;20046;-74
2023/10/04 02:08:29;;;;;;;9.38;2.53;;;;;;;12.69;100.00;102378.13;4968142;28;20167;-75
2023/10/04 02:10:57;;;;;;;12.05;3.22;;;;;;;12.68;100.00;102376.38;4967447;28;20054;-75
2023/10/04 02:13:27;;;;;;;9.18;2.85;;;;;;;12.69;100.00;102364.91;4965944;28;20139;-72
2023/10/04 02:15:54;;;;;;;10.60;2.67;;;;;;;12.70;100.00;102368.44;4968466;28;20113;-72
2023/10/04 02:18:22;;;;;;;11.77;2.90;;;;;;;12.72;100.00;102367.50;4966942;28;20073;-72
2023/10/04 02:20:53;;;;;;;12.13;2.90;;;;;;;12.72;100.00;102370.16;4967819;28;20464;-72
2023/10/04 02:23:21;;;;;;;9.25;2.83;;;;;;;12.72;100.00;102366.63;4966861;28;20049;-73
2023/10/04 02:25:48;;;;;;;10.02;3.10;;;;;;;12.72;100.00;102367.50;4982590;28;20066;-73
2023/10/04 02:28:22;;;;;;;8.35;2.33;;;;;;;12.74;100.00;102367.47;4987220;28;20050;-74
2023/10/04 02:30:54;;;;;;;8.65;2.55;;;;;;;12.76;100.00;102370.97;4967992;28;20057;-73
2023/10/04 02:33:27;;;;;;;10.15;2.95;;;;;;;12.76;100.00;102362.19;4964838;28;20113;-72
2023/10/04 02:35:56;;;;;;;10.18;3.03;;;;;;;12.76;100.00;102359.53;4966080;28;20042;-72
2023/10/04 02:38:26;;;;;;;7.38;2.83;;;;;;;12.74;100.00;102360.41;4967525;28;20047;-73
2023/10/04 02:40:54;;;;;;;12.85;3.38;;;;;;;12.77;100.00;102369.22;4966439;28;20059;-77
2023/10/04 02:43:27;;;;;;;8.48;2.78;;;;;;;12.75;100.00;102358.63;4978443;28;20583;-76
2023/10/04 02:45:57;;;;;;;12.07;2.88;;;;;;;12.76;100.00;102365.69;4967774;28;20113;-77
2023/10/04 02:48:24;;;;;;;12.65;2.90;;;;;;;12.77;100.00;102366.56;4965436;28;20047;-76
2023/10/04 02:50:52;;;;;;;7.72;2.50;;;;;;;12.77;100.00;102366.56;4965537;28;20042;-76
2023/10/04 02:53:23;;;;;;;11.50;3.20;;;;;;;12.76;100.00;102370.97;4966537;28;20042;-77
2023/10/04 02:55:54;;;;;;;17.88;3.67;;;;;;;12.77;100.00;102362.13;4966317;28;20043;-75
2023/10/04 02:58:26;;;;;;;10.13;3.00;;;;;;;12.78;100.00;102363.00;4970471;28;20039;-75
2023/10/04 03:00:54;;;;;;;9.50;2.95;;;;;;;12.78;100.00;102369.19;4980296;28;20062;-75
2023/10/04 03:03:25;;;;;;;8.95;3.30;;;;;;;12.77;100.00;102375.38;4964337;28;20503;-75
2023/10/04 03:06:00;;;;;;;10.07;3.10;;;;;;;12.76;100.00;102373.63;4998218;28;20042;-75
2023/10/04 03:08:28;;;;;;;9.98;2.50;;;;;;;12.77;100.00;102382.44;4998071;28;20043;-74
2023/10/04 03:10:56;;;;;;;8.25;2.40;;;;;;;12.76;100.00;102378.91;4965160;28;20120;-75
2023/10/04 03:13:27;;;;;;;8.75;2.90;;;;;;;12.77;100.00;102379.81;4965813;28;20427;-76
2023/10/04 03:16:00;;;;;;;8.40;2.95;;;;;;;12.77;100.00;102380.66;4966165;28;20047;-75
2023/10/04 03:18:27;;;;;;;9.52;3.05;;;;;;;12.76;100.00;102381.56;4965131;28;20649;-76
2023/10/04 03:23:34;;;;;;;9.20;2.75;;;;;;;12.70;100.00;102387.81;4969135;28;20073;-75
2023/10/04 03:26:07;;;;;;;8.77;2.50;;;;;;;12.68;100.00;102379.00;4970526;28;20392;-76
2023/10/04 03:28:37;;;;;;;11.27;2.85;;;;;;;12.66;100.00;102386.13;4969992;28;20132;-75
2023/10/04 03:31:14;;;;;;;9.95;3.17;;;;;;;12.66;100.00;102388.78;4969290;28;20399;-75
2023/10/04 03:33:48;;;;;;;9.38;2.60;;;;;;;12.62;100.00;102392.34;4975294;28;20046;-75
2023/10/04 03:36:18;;;;;;;10.32;3.15;;;;;;;12.59;100.00;102397.66;5002437;28;20047;-75
2023/10/04 03:38:51;;;;;;;14.55;3.10;;;;;;;12.56;100.00;102400.38;4971652;28;20047;-75
2023/10/04 03:41:19;;;;;;;12.63;3.20;;;;;;;12.51;100.00;102400.44;4971160;28;20082;-75
2023/10/04 03:43:47;;;;;;;15.35;3.10;;;;;;;12.47;100.00;102400.47;4970871;28;20058;-75
2023/10/04 03:46:18;;;;;;;10.07;3.03;;;;;;;12.41;100.00;102402.31;4969279;28;20059;-75
2023/10/04 03:48:51;;;;;;;15.88;3.28;;;;;;;12.36;100.00;102406.78;4968798;28;20074;-75
2023/10/04 03:51:21;;;;;;;13.25;3.22;;;;;;;12.32;100.00;102405.09;4969349;28;20125;-75
2023/10/04 03:53:51;;;;;;;14.30;3.13;;;;;;;12.27;100.00;102405.16;4968893;28;20046;-75
2023/10/04 03:56:21;;;;;;;12.52;3.25;;;;;;;12.27;100.00;102404.25;4968151;28;20042;-75
2023/10/04 03:58:50;;;;;;;9.40;2.90;;;;;;;12.22;100.00;102392.88;4967631;28;20043;-75
2023/10/04 04:01:19;;;;;;;12.88;3.35;;;;;;;12.18;100.00;102401.72;4968856;28;20045;-76
2023/10/04 04:03:49;;;;;;;9.43;3.10;;;;;;;12.14;100.00;102400.91;4969842;28;20051;-76
2023/10/04 04:06:17;;;;;;;11.98;3.47;;;;;;;12.10;100.00;102399.19;4972997;28;20117;-77
2023/10/04 04:08:46;;;;;;;10.77;3.63;;;;;;;12.09;100.00;102402.72;4971062;28;20493;-77
2023/10/04 04:11:14;;;;;;;11.63;3.17;;;;;;;12.05;100.00;102401.91;5003608;28;20090;-77
2023/10/04 04:13:44;;;;;;;27.02;4.63;;;;;;;12.03;100.00;102408.06;4970324;28;20503;-75
2023/10/04 04:16:11;;;;;;;14.38;3.63;;;;;;;11.99;100.00;102401.94;4971926;28;20045;-75
2023/10/04 04:18:40;;;;;;;15.18;3.42;;;;;;;11.96;100.00;102405.47;4968934;28;20093;-75
2023/10/04 04:21:08;;;;;;;19.17;4.32;;;;;;;11.93;100.00;102402.84;4983162;28;20125;-74
2023/10/04 04:23:36;;;;;;;13.90;3.30;;;;;;;11.88;100.00;102395.88;4969870;28;20515;-76
2023/10/04 04:26:07;;;;;;;14.43;3.53;;;;;;;11.86;100.00;102401.19;4968821;28;20055;-76
2023/10/04 04:28:37;;;;;;;13.43;3.13;;;;;;;11.84;100.00;102400.31;4961186;28;20039;-75
2023/10/04 04:31:14;;;;;;;13.15;3.50;;;;;;;11.84;100.00;102397.69;4984538;28;20069;-75
2023/10/04 04:33:44;;;;;;;11.90;3.20;;;;;;;11.81;100.00;102398.59;4965720;28;20049;-72
2023/10/04 04:36:27;;;;;;;22.88;3.75;;;;;;;11.79;100.00;102405.66;4965189;28;20043;-73
2023/10/04 04:38:59;;;;;;;13.93;3.78;;;;;;;11.76;100.00;102397.75;4960298;28;20049;-73
2023/10/04 04:41:29;;;;;;;12.50;3.45;;;;;;;11.75;100.00;102393.34;4965004;28;20570;-72
2023/10/04 04:43:59;;;;;;;15.40;3.33;;;;;;;11.74;100.00;102394.28;4961035;28;20046;-72
2023/10/04 04:46:26;;;;;;;16.80;4.00;;;;;;;11.71;100.00;102390.75;4958564;28;20050;-73
2023/10/04 04:48:55;;;;;;;14.45;3.67;;;;;;;11.68;100.00;102391.69;4955632;28;20070;-73
2023/10/04 04:51:24;;;;;;;15.70;3.90;;;;;;;11.62;100.00;102383.81;4987989;28;20122;-73
2023/10/04 04:53:53;;;;;;;11.10;3.72;;;;;;;11.61;100.00;102390.00;4969354;28;20434;-74
2023/10/04 04:56:24;;;;;;;9.80;3.30;;;;;;;11.60;100.00;102385.59;4966368;28;20053;-73
2023/10/04 04:58:56;;;;;;;10.60;3.63;;;;;;;11.62;100.00;102391.75;4969541;28;20046;-72
2023/10/04 05:01:33;;;;;;;15.55;4.10;;;;;;;11.64;100.00;102387.34;4982865;28;20039;-73
2023/10/04 05:04:06;;;;;;;13.43;3.20;;;;;;;11.64;100.00;102385.56;4966671;28;20050;-73
2023/10/04 05:06:33;;;;;;;12.95;3.50;;;;;;;11.64;100.00;102385.56;4966124;28;20054;-73
2023/10/04 05:09:01;;;;;;;17.95;4.05;;;;;;;11.64;100.00;102377.63;4951554;28;20039;-73
2023/10/04 05:11:28;;;;;;;10.43;3.50;;;;;;;11.64;100.00;102395.25;4969306;28;20048;-73
2023/10/04 05:13:56;;;;;;;13.65;3.55;;;;;;;11.64;100.00;102382.06;4967665;28;20039;-74
2023/10/04 05:16:25;;;;;;;13.95;3.75;;;;;;;11.64;100.00;102395.25;4982605;28;20053;-74
2023/10/04 05:18:53;;;;;;;10.50;3.47;;;;;;;11.60;100.00;102397.03;4951019;28;20051;-74
2023/10/04 05:21:21;;;;;;;18.58;4.00;;;;;;;11.55;100.00;102408.56;4961592;28;20042;-74
2023/10/04 05:23:49;;;;;;;14.30;4.13;;;;;;;11.51;100.00;102415.59;4961347;28;20050;-73
2023/10/04 05:26:16;;;;;;;18.15;4.47;;;;;;;11.47;100.00;102414.75;4966850;28;20058;-74
2023/10/04 05:28:43;;;;;;;18.05;3.92;;;;;;;11.46;100.00;102428.00;4968606;28;20066;-74
2023/10/04 05:31:10;;;;;;;18.42;4.63;;;;;;;11.42;100.00;102431.53;4965021;28;20054;-72
2023/10/04 05:33:37;;;;;;;26.10;4.57;;;;;;;11.40;100.00;102438.59;4961842;28;20039;-73
2023/10/04 05:36:06;;;;;;;13.50;3.63;;;;;;;11.38;100.00;102450.94;4966031;28;20161;-73
2023/10/04 05:38:35;;;;;;;15.98;4.13;;;;;;;11.36;100.00;102456.22;4967258;28;20054;-71
2023/10/04 05:41:03;;;;;;;13.38;3.67;;;;;;;11.37;100.00;102454.47;4964083;28;20426;-72
2023/10/04 05:43:34;;;;;;;16.17;3.85;;;;;;;11.38;100.00;102446.53;4947336;28;20075;-72
2023/10/04 05:46:03;;;;;;;12.63;4.00;;;;;;;11.39;100.00;102437.72;4964412;28;20066;-74
2023/10/04 05:48:30;;;;;;;15.98;4.07;;;;;;;11.40;100.00;102444.75;4965572;28;20610;-72
2023/10/04 05:50:58;;;;;;;16.45;4.15;;;;;;;11.40;100.00;102434.19;4966436;28;20125;-73
2023/10/04 05:53:27;;;;;;;20.98;4.50;;;;;;;11.39;100.00;102445.66;4967456;28;20125;-74
2023/10/04 05:55:54;;;;;;;15.32;3.95;;;;;;;11.39;100.00;102444.78;4969920;28;20518;-74
2023/10/04 05:58:21;;;;;;;20.95;4.80;;;;;;;11.43;100.00;102457.06;4967937;28;20047;-73
2023/10/04 06:00:52;;;;;;;21.02;4.82;;;;;;;11.43;100.00;102459.69;4963813;28;20042;-74
2023/10/04 06:03:21;;;;;;;23.55;4.78;;;;;;;11.46;100.00;102457.91;4967455;28;20042;-73
2023/10/04 06:05:51;;;;;;;20.02;4.65;;;;;;;11.50;100.00;102471.94;4966687;28;20054;-73
2023/10/04 06:08:20;;;;;;;22.70;4.45;;;;;;;11.52;100.00;102474.59;4960515;28;20046;-74
2023/10/04 06:10:53;;;;;;;15.38;4.40;;;;;;;11.55;100.00;102482.50;4965303;28;20138;-75
2023/10/04 06:13:22;;;;;;;19.20;4.60;;;;;;;11.59;100.00;102474.53;4951427;28;20047;-74
2023/10/04 06:15:55;;;;;;;18.83;4.68;;;;;;;11.63;100.00;102476.25;4964706;28;20585;-74
2023/10/04 06:18:28;;;;;;;16.38;4.82;;;;;;;11.66;100.00;102480.63;4967294;28;20640;-74
2023/10/04 06:20:59;;;;;;;15.77;4.37;;;;;;;11.70;100.00;102479.72;4966720;28;20049;-75
2023/10/04 06:23:27;;;;;;;17.35;4.72;;;;;;;11.72;100.00;102482.34;4966211;28;20050;-74
2023/10/04 06:25:55;;;;;;;19.00;4.70;;;;;;;11.74;100.00;102481.47;4967155;28;20053;-73
2023/10/04 06:28:22;;;;;;;13.10;4.38;;;;;;;11.76;100.00;102486.72;4968551;28;20047;-75
2023/10/04 06:30:50;;;;;;;18.83;4.53;;;;;;;11.79;100.00;102484.06;4966997;28;20065;-74
2023/10/04 06:33:18;;;;;;;18.75;5.00;;;;;;;11.83;100.00;102485.75;4966960;28;20047;-75
2023/10/04 06:35:46;;;;;;;15.77;4.20;;;;;;;11.88;100.00;102491.91;4966515;28;20105;-74
2023/10/04 06:38:14;;;;;;;12.43;3.40;;;;;;;11.93;100.00;102497.13;4968090;28;20043;-74
2023/10/04 06:40:42;;;;;;;25.83;4.65;;;;;;;11.97;100.00;102498.84;4968151;28;20061;-74
2023/10/04 06:43:11;;;;;;;26.90;4.97;;;;;;;12.01;100.00;102505.91;4962181;28;20514;-74
2023/10/04 06:45:41;;;;;;;17.38;4.45;;;;;;;12.04;100.00;102499.69;4967620;28;20082;-74
2023/10/04 06:48:09;;;;;;;19.38;4.40;;;;;;;12.08;100.00;102512.00;4966565;28;20073;-73
2023/10/04 06:50:42;;;;;;;15.98;4.38;;;;;;;12.14;100.00;102511.94;4967236;28;20046;-74
2023/10/04 06:53:10;;;;;;;17.73;4.18;;;;;;;12.17;100.00;102506.63;4967125;28;20049;-74
2023/10/04 06:55:38;;;;;;;19.85;4.57;;;;;;;12.21;100.00;102513.59;4968298;28;20167;-74
2023/10/04 06:58:10;;;;;;;40.58;6.75;;;;;;;12.26;100.00;102510.91;4966434;28;20484;-75
2023/10/04 07:00:39;;;;;;;34.03;5.80;;;;;;;12.31;100.00;102509.13;4966558;28;20078;-74
2023/10/04 07:03:06;;;;;;;31.95;5.72;;;;;;;12.36;100.00;102512.56;4967792;28;20038;-74
2023/10/04 07:05:38;;;;;;;18.33;4.50;;;;;;;12.42;100.00;102519.56;4966674;28;20570;-74
2023/10/04 07:08:11;;;;;;;16.33;4.03;;;;;;;12.46;100.00;102518.66;4967850;28;20042;-75
2023/10/04 07:10:39;;;;;;;21.33;4.82;;;;;;;12.48;100.00;102511.56;4966779;28;20113;-75
2023/10/04 07:13:07;;;;;;;12.93;3.67;;;;;;;12.55;100.00;102517.66;4971927;28;20416;-75
2023/10/04 07:15:41;;;;;;;14.48;4.40;;;;;;;12.60;100.00;102517.63;4985059;28;20118;-74
2023/10/04 07:18:11;;;;;;;12.93;4.20;;;;;;;12.68;100.00;102523.69;4965323;28;20039;-75
2023/10/04 07:20:40;;;;;;;20.95;4.32;;;;;;;12.74;100.00;102523.59;4966903;28;20459;-74
2023/10/04 07:23:10;;;;;;;16.70;4.60;;;;;;;12.79;100.00;102516.50;4968230;28;20070;-74
2023/10/04 07:25:44;;;;;;;19.35;4.80;;;;;;;12.82;100.00;102507.63;4967049;28;20054;-74
2023/10/04 07:28:11;;;;;;;18.33;4.30;;;;;;;12.91;100.00;102512.78;4968106;28;20046;-74
2023/10/04 07:30:40;;;;;;;22.08;5.80;;;;;;;12.99;100.00;102516.19;4967255;28;20053;-74
2023/10/04 07:33:08;;;;;;;13.90;4.15;;;;;;;13.07;99.74;102516.09;4968455;28;20154;-74
2023/10/04 07:35:36;;;;;;;17.33;4.20;;;;;;;13.14;99.58;102522.19;4967517;28;20558;-74
2023/10/04 07:38:06;;;;;;;14.38;4.57;;;;;;;13.25;99.76;102525.56;4967802;28;20051;-74
2023/10/04 07:40:35;;;;;;;11.48;3.40;;;;;;;13.35;98.76;102534.25;4968267;28;20055;-74
2023/10/04 07:43:02;;;;;;;16.27;3.67;;;;;;;13.41;98.19;102536.84;4967147;28;20102;-74
2023/10/04 07:45:30;;;;;;;12.95;3.75;;;;;;;13.47;98.50;102526.13;4967881;28;20039;-74
2023/10/04 07:48:00;;;;;;;16.52;4.10;;;;;;;13.60;97.82;102539.19;4967571;28;20081;-75
2023/10/04 07:50:28;;;;;;;12.30;3.80;;;;;;;13.66;97.41;102539.09;4968131;28;20535;-73
2023/10/04 07:52:59;;;;;;;10.63;3.60;;;;;;;13.73;96.71;102538.09;4968671;28;20418;-73
2023/10/04 07:55:27;;;;;;;18.13;4.40;;;;;;;13.81;96.63;102546.81;4968119;28;20472;-74
2023/10/04 07:58:04;;;;;;;13.98;3.90;;;;;;;13.93;96.64;102543.06;4966901;28;20513;-73
2023/10/04 08:00:38;;;;;;;12.63;3.40;;;;;;;14.01;96.03;102550.88;4968080;28;20046;-73
2023/10/04 08:03:08;;;;;;;18.40;4.20;;;;;;;14.09;96.48;102551.63;4966258;28;20488;-73
2023/10/04 08:05:36;;;;;;;14.25;4.20;;;;;;;14.16;96.08;102547.09;4952512;28;20035;-74
2023/10/04 08:08:05;;;;;;;16.10;4.10;;;;;;;14.23;95.92;102548.72;4948713;28;20062;-74
2023/10/04 08:10:36;;;;;;;13.32;3.60;;;;;;;14.34;94.63;102552.94;4952139;28;20055;-75
2023/10/04 08:13:04;;;;;;;17.83;4.10;;;;;;;14.39;93.82;102549.31;4951930;28;20047;-74
2023/10/04 08:15:37;;;;;;;16.67;3.70;;;;;;;14.49;94.02;102549.13;4951662;29;20072;-74
2023/10/04 08:18:05;;;;;;;13.05;3.90;;;;;;;14.62;93.72;102549.75;4951606;29;20039;-74
2023/10/04 08:20:36;;;;;;;15.32;3.63;;;;;;;14.69;93.57;102549.63;4951341;28;20039;-75
2023/10/04 08:23:04;;;;;;;21.60;4.03;;;;;;;14.79;92.52;102555.63;4962900;28;20561;-75
2023/10/04 08:25:35;;;;;;;17.80;4.13;;;;;;;14.87;91.80;102555.44;4968050;28;20066;-75
2023/10/04 08:28:09;;;;;;;16.33;3.88;;;;;;;14.90;91.76;102552.75;4970883;28;20053;-74
2023/10/04 08:30:38;;;;;;;9.18;3.15;;;;;;;14.95;91.00;102557.94;4969064;28;20045;-75
2023/10/04 08:33:08;;;;;;;16.27;3.55;;;;;;;15.03;90.45;102553.34;4971015;28;20047;-75
2023/10/04 08:35:39;;;;;;;13.45;4.13;;;;;;;15.10;90.59;102554.09;4969935;28;20054;-74
2023/10/04 08:38:06;;;;;;;15.73;4.00;;;;;;;15.16;90.07;102549.53;4968660;28;20546;-74
2023/10/04 08:40:41;;;;;;;14.75;3.80;;;;;;;15.26;90.34;102552.81;4970029;28;20086;-74
2023/10/04 08:43:09;;;;;;;10.30;3.13;;;;;;;15.33;89.93;102554.44;4969638;28;20517;-75
2023/10/04 08:45:37;;;;;;;17.23;3.97;;;;;;;15.40;89.22;102559.63;4970171;28;20631;-74
2023/10/04 08:48:05;;;;;;;11.15;3.38;;;;;;;15.47;89.68;102561.22;4970534;28;20121;-74
2023/10/04 08:50:38;;;;;;;11.63;3.40;;;;;;;15.58;89.46;102558.31;4969461;28;20665;-74
2023/10/04 08:53:23;;;;;;;13.75;3.70;;;;;;;15.66;88.41;102561.66;4969024;28;20038;-75
2023/10/04 08:55:56;;;;;;;;;;;;;;;15.71;88.51;102557.13;4968714;28;20473;-74
2023/10/04 08:58:24;;;;;;;27.02;4.47;;;;;;;15.80;89.25;102563.97;4968909;28;19926;-74
2023/10/04 09:00:52;;;;;;;12.75;3.33;;;;;;;15.91;88.70;102563.75;4969530;28;20126;-73
2023/10/04 09:03:21;;;;;;;23.90;4.05;;;;;;;16.01;88.42;102567.91;4969737;28;20049;-74
2023/10/04 09:05:54;;;;;;;13.00;3.58;;;;;;;16.08;86.70;102564.19;4968464;28;20043;-74
2023/10/04 09:08:24;;;;;;;10.88;4.00;;;;;;;16.14;87.36;102560.47;4959500;28;20066;-74
2023/10/04 09:10:54;;;;;;;11.15;3.10;;;;;;;16.18;86.98;102556.81;4969667;28;20066;-74
2023/10/04 09:13:22;;;;;;;10.35;3.10;;;;;;;16.21;86.65;102558.53;4968942;28;20047;-74
2023/10/04 09:15:50;;;;;;;11.05;3.30;;;;;;;16.26;85.30;102561.94;4968398;28;20047;-74
2023/10/04 09:18:28;;;;;;;13.10;3.40;;;;;;;16.32;85.37;102569.78;4964240;28;20045;-74
2023/10/04 09:20:55;;;;;;;11.52;3.10;;;;;;;16.36;85.17;102567.91;4968278;28;20049;-74
2023/10/04 09:23:23;;;;;;;12.48;3.28;;;;;;;16.40;84.45;102570.44;4974769;28;20618;-74
2023/10/04 09:25:55;;;;;;;13.93;3.17;;;;;;;16.41;83.31;102566.84;4969253;28;20508;-74
2023/10/04 09:28:38;;;;;;;14.27;3.83;;;;;;;16.43;84.07;102564.13;4968197;28;20467;-74
2023/10/04 09:31:18;;;;;;;11.95;3.17;;;;;;;16.45;84.05;102571.16;4969725;28;20157;-73
2023/10/04 09:33:46;;;;;;;11.93;3.55;;;;;;;16.47;84.55;102565.81;4964795;28;20904;-73
2023/10/04 09:36:32;;;;;;;11.38;3.70;;;;;;;16.57;83.71;102567.31;4967869;28;20125;-75
2023/10/04 09:39:13;;;;;;;10.70;3.20;;;;;;;16.63;83.73;102566.25;4968002;28;20051;-74
2023/10/04 09:41:47;;;;;;;14.60;3.45;;;;;;;16.70;82.86;102565.16;4968776;28;20133;-74
2023/10/04 09:44:30;;;;;;;14.55;3.50;;;;;;;16.79;82.66;102566.66;4969092;28;20046;-74
2023/10/04 09:47:02;;;;;;;13.38;3.65;;;;;;;16.87;83.25;102561.13;4959982;28;20053;-74
2023/10/04 09:49:34;;;;;;;11.32;3.30;;;;;;;16.91;81.47;102574.28;4963840;28;20066;-74
2023/10/04 09:52:07;;;;;;;11.82;3.20;;;;;;;16.91;81.46;102560.97;4967279;28;20053;-74
2023/10/04 09:54:35;;;;;;;12.38;3.10;;;;;;;16.92;81.14;102568.06;4968732;28;20070;-74
2023/10/04 09:57:12;;;;;;;16.58;3.50;;;;;;;16.94;81.41;102564.50;4967333;28;20047;-75
2023/10/04 09:59:44;;;;;;;9.65;3.25;;;;;;;16.97;80.61;102567.94;4966291;28;20578;-74
2023/10/04 10:02:15;;;;;;;15.57;3.63;;;;;;;16.98;80.32;102560.84;4968423;28;20042;-74
2023/10/04 10:04:44;;;;;;;14.90;3.65;;;;;;;16.98;79.74;102569.69;4960376;28;20042;-74
2023/10/04 10:07:33;;;;;;;12.65;3.63;;;;;;;16.97;80.94;102567.94;4969271;28;20056;-73
2023/10/04 10:10:10;;;;;;;12.30;2.90;;;;;;;17.03;80.42;102562.47;4967153;28;20078;-74
2023/10/04 10:12:49;;;;;;;15.10;3.33;;;;;;;17.11;80.73;102572.00;4968908;28;20550;-73
2023/10/04 10:15:18;;;;;;;10.82;3.30;;;;;;;17.20;80.39;102574.38;4969154;28;20046;-74
2023/10/04 10:17:46;;;;;;;10.27;3.30;;;;;;;17.27;80.41;102572.41;4968553;28;20051;-74
2023/10/04 10:20:16;;;;;;;11.70;3.28;;;;;;;17.32;79.97;102574.00;4968487;28;20730;-74
2023/10/04 10:23:06;;;;;;;13.25;2.70;;;;;;;17.42;78.27;102573.72;4968091;28;20043;-74
2023/10/04 10:25:33;;;;;;;12.93;3.20;;;;;;;17.52;78.38;102580.50;4967492;28;20042;-74
2023/10/04 10:28:04;;;;;;;11.90;3.35;;;;;;;17.65;76.79;102579.16;4968899;28;20118;-74
2023/10/04 10:30:31;;;;;;;11.65;3.08;;;;;;;17.74;75.51;102571.78;4968479;28;20515;-74
2023/10/04 10:33:00;;;;;;;9.52;2.72;;;;;;;17.79;75.29;102573.38;4968673;28;20781;-74
2023/10/04 10:35:46;;;;;;;8.68;2.55;;;;;;;17.90;73.58;102577.50;4968357;28;20046;-74
2023/10/04 10:38:43;;;;;;;12.05;3.50;;;;;;;17.95;74.78;102575.53;4967310;28;20043;-73
2023/10/04 10:41:29;;;;;;;8.40;2.65;;;;;;;18.01;74.99;102575.34;4965775;28;20050;-74
2023/10/04 10:44:17;;;;;;;10.82;2.28;;;;;;;18.05;73.87;102568.97;4968335;28;20043;-74
2023/10/04 10:47:23;;;;;;;9.05;2.72;;;;;;;18.07;73.77;102572.47;4967154;28;20046;-74
2023/10/04 10:49:56;;;;;;;13.27;3.30;;;;;;;18.06;72.92;102561.88;4964706;28;20511;-74
2023/10/04 10:52:44;;;;;;;11.60;3.00;;;;;;;18.13;70.91;102568.72;4967530;28;20055;-74
2023/10/04 10:55:19;;;;;;;13.27;3.15;;;;;;;18.20;71.02;102558.72;4957883;28;20047;-73
2023/10/04 10:57:50;;;;;;;7.47;2.67;;;;;;;18.24;71.58;102550.53;4966879;28;20070;-74
2023/10/04 11:02:48;;;;;;;10.52;2.78;;;;;;;18.39;69.66;102550.91;4968189;28;20431;-74
2023/10/04 11:05:16;;;;;;;11.23;2.92;;;;;;;18.26;69.04;102547.81;4966621;28;20039;-75
2023/10/04 11:07:49;;;;;;;12.32;3.00;;;;;;;18.21;70.29;102547.13;4966720;28;20050;-75
2023/10/04 11:10:17;;;;;;;11.63;3.00;;;;;;;18.30;71.36;102547.63;4966021;28;20051;-74
2023/10/04 11:12:46;;;;;;;10.20;2.90;;;;;;;18.43;70.06;102550.72;4967120;28;20043;-74
2023/10/04 11:15:17;;;;;;;8.82;2.70;;;;;;;18.55;70.60;102554.78;4968513;28;20042;-74
2023/10/04 11:17:46;;;;;;;10.25;3.22;;;;;;;18.62;68.98;102545.59;4958539;28;20102;-74
2023/10/04 11:20:17;;;;;;;8.88;3.13;;;;;;;18.60;67.98;102550.13;4967248;28;20738;-74
2023/10/04 11:22:45;;;;;;;14.27;3.80;;;;;;;18.56;66.89;102536.94;4967854;28;20049;-74
2023/10/04 11:25:13;;;;;;;12.15;3.75;;;;;;;18.47;67.31;102531.00;4967702;28;20043;-74
2023/10/04 11:27:45;;;;;;;11.60;2.95;;;;;;;18.46;68.58;102531.94;4967946;28;20047;-74
2023/10/04 11:30:16;;;;;;;11.15;3.00;;;;;;;18.49;68.72;102533.63;4948502;28;20049;-73
2023/10/04 11:32:46;;;;;;;9.90;3.30;;;;;;;18.52;68.06;102525.50;4950032;28;20527;-73
2023/10/04 11:35:19;;;;;;;8.10;3.22;;;;;;;18.54;66.79;102533.44;4957913;28;20146;-74